sensor_id;sensor_type;location;lat;lon;timestamp;pressure;altitude;pressure_sealevel;temperature;humidity
72721;BME280;60835;50.974;10.322;2023-04-06T00:00:00;98253.00;;;-1.42;100.00
72721;BME280;60835;50.974;10.322;2023-04-06T00:02:27;98357.44;;;-0.76;100.00
72721;BME280;60835;50.974;10.322;2023-04-06T00:04:53;98346.59;;;-0.82;100.00
72721;BME280;60835;50.974;10.322;2023-04-06T00:07:20;98333.50;;;-0.81;100.00
72721;BME280;60835;50.974;10.322;2023-04-06T00:09:46;98336.19;;;-0.82;100.00
72721;BME280;60835;50.974;10.322;2023-04-06T00:12:13;98339.13;;;-0.88;100.00
72721;BME280;60835;50.974;10.322;2023-04-06T00:14:41;98326.31;;;-0.91;100.00
72721;BME280;60835;50.974;10.322;2023-04-06T00:17:07;98328.34;;;-0.96;100.00
72721;BME280;60835;50.974;10.322;2023-04-06T00:19:34;98327.50;;;-0.97;100.00
72721;BME280;60835;50.974;10.322;2023-04-06T00:22:00;98312.81;;;-0.98;100.00
72721;BME280;60835;50.974;10.322;2023-04-06T00:24:28;98302.38;;;-0.96;100.00
72721;BME280;60835;50.974;10.322;2023-04-06T00:26:55;98300.09;;;-1.02;100.00
72721;BME280;60835;50.974;10.322;2023-04-06T00:29:22;98300.09;;;-1.02;100.00
72721;BME280;60835;50.974;10.322;2023-04-06T00:31:49;98297.75;;;-0.91;100.00
72721;BME280;60835;50.974;10.322;2023-04-06T00:34:15;98297.25;;;-0.98;100.00
72721;BME280;60835;50.974;10.322;2023-04-06T00:36:42;98262.09;;;-1.03;100.00
72721;BME280;60835;50.974;10.322;2023-04-06T00:39:09;98232.53;;;-1.01;100.00
72721;BME280;60835;50.974;10.322;2023-04-06T00:41:36;98218.94;;;-1.06;100.00
72721;BME280;60835;50.974;10.322;2023-04-06T00:44:02;98195.84;;;-1.10;100.00
72721;BME280;60835;50.974;10.322;2023-04-06T00:46:29;98181.69;;;-1.05;100.00
72721;BME280;60835;50.974;10.322;2023-04-06T00:48:56;98178.09;;;-1.02;100.00
72721;BME280;60835;50.974;10.322;2023-04-06T00:51:23;98146.94;;;-1.02;100.00
72721;BME280;60835;50.974;10.322;2023-04-06T00:53:50;98149.31;;;-1.13;100.00
72721;BME280;60835;50.974;10.322;2023-04-06T00:56:16;98141.34;;;-1.10;100.00
72721;BME280;60835;50.974;10.322;2023-04-06T00:58:43;98139.75;;;-1.13;100.00
72721;BME280;60835;50.974;10.322;2023-04-06T01:01:10;98130.41;;;-1.15;100.00
72721;BME280;60835;50.974;10.322;2023-04-06T01:03:36;98119.16;;;-1.16;100.00
72721;BME280;60835;50.974;10.322;2023-04-06T01:06:03;98116.75;;;-1.19;100.00
72721;BME280;60835;50.974;10.322;2023-04-06T01:08:30;98108.97;;;-1.19;100.00
72721;BME280;60835;50.974;10.322;2023-04-06T01:10:58;98099.44;;;-1.18;100.00
72721;BME280;60835;50.974;10.322;2023-04-06T01:13:26;98102.66;;;-1.29;100.00
72721;BME280;60835;50.974;10.322;2023-04-06T01:15:53;98071.81;;;-1.19;100.00
72721;BME280;60835;50.974;10.322;2023-04-06T01:18:25;98062.06;;;-1.16;100.00
72721;BME280;60835;50.974;10.322;2023-04-06T01:20:52;98052.69;;;-1.18;100.00
72721;BME280;60835;50.974;10.322;2023-04-06T01:23:18;98041.03;;;-1.26;100.00
72721;BME280;60835;50.974;10.322;2023-04-06T01:25:45;98043.06;;;-1.31;100.00
72721;BME280;60835;50.974;10.322;2023-04-06T01:28:12;98018.69;;;-1.28;100.00
72721;BME280;60835;50.974;10.322;2023-04-06T01:30:39;98007.09;;;-1.37;100.00
72721;BME280;60835;50.974;10.322;2023-04-06T01:33:06;97985.41;;;-1.36;100.00
72721;BME280;60835;50.974;10.322;2023-04-06T01:35:33;97958.91;;;-1.41;100.00
72721;BME280;60835;50.974;10.322;2023-04-06T01:38:00;97944.81;;;-1.37;100.00
72721;BME280;60835;50.974;10.322;2023-04-06T01:40:26;97938.16;;;-1.41;100.00
72721;BME280;60835;50.974;10.322;2023-04-06T01:42:53;97926.94;;;-1.41;100.00
72721;BME280;60835;50.974;10.322;2023-04-06T01:45:20;97917.00;;;-1.35;100.00
72721;BME280;60835;50.974;10.322;2023-04-06T01:47:47;97913.69;;;-1.23;100.00
72721;BME280;60835;50.974;10.322;2023-04-06T01:50:13;97925.19;;;-1.41;100.00
72721;BME280;60835;50.974;10.322;2023-04-06T01:52:43;97833.13;;;-2.04;100.00
72721;BME280;60835;50.974;10.322;2023-04-06T01:55:10;97931.66;;;-1.48;100.00
72721;BME280;60835;50.974;10.322;2023-04-06T01:57:36;97908.69;;;-1.54;100.00
72721;BME280;60835;50.974;10.322;2023-04-06T02:00:03;97891.09;;;-1.63;100.00
72721;BME280;60835;50.974;10.322;2023-04-06T02:02:30;97863.69;;;-1.67;100.00
72721;BME280;60835;50.974;10.322;2023-04-06T02:04:57;97844.41;;;-1.63;100.00
72721;BME280;60835;50.974;10.322;2023-04-06T02:07:24;97826.97;;;-1.61;100.00
72721;BME280;60835;50.974;10.322;2023-04-06T02:09:54;97831.44;;;-1.63;100.00
72721;BME280;60835;50.974;10.322;2023-04-06T02:12:22;97723.72;;;-2.23;100.00
72721;BME280;60835;50.974;10.322;2023-04-06T02:14:50;97820.34;;;-1.65;100.00
72721;BME280;60835;50.974;10.322;2023-04-06T02:17:17;97807.38;;;-1.65;100.00
72721;BME280;60835;50.974;10.322;2023-04-06T02:19:43;97777.47;;;-1.70;100.00
72721;BME280;60835;50.974;10.322;2023-04-06T02:22:10;97757.63;;;-1.71;100.00
72721;BME280;60835;50.974;10.322;2023-04-06T02:24:37;97767.38;;;-1.75;100.00
72721;BME280;60835;50.974;10.322;2023-04-06T02:27:03;97766.53;;;-1.75;100.00
72721;BME280;60835;50.974;10.322;2023-04-06T02:29:30;97732.53;;;-1.71;100.00
72721;BME280;60835;50.974;10.322;2023-04-06T02:31:56;97727.19;;;-1.82;100.00
72721;BME280;60835;50.974;10.322;2023-04-06T02:34:23;97719.03;;;-1.76;100.00
72721;BME280;60835;50.974;10.322;2023-04-06T02:36:50;97621.41;;;-2.30;100.00
72721;BME280;60835;50.974;10.322;2023-04-06T02:39:17;97716.97;;;-1.71;100.00
72721;BME280;60835;50.974;10.322;2023-04-06T02:41:43;97724.47;;;-1.66;100.00
72721;BME280;60835;50.974;10.322;2023-04-06T02:44:10;97735.66;;;-1.66;100.00
72721;BME280;60835;50.974;10.322;2023-04-06T02:46:36;97735.66;;;-1.66;100.00
72721;BME280;60835;50.974;10.322;2023-04-06T02:49:03;97646.72;;;-2.21;100.00
72721;BME280;60835;50.974;10.322;2023-04-06T02:51:30;97752.75;;;-1.76;100.00
72721;BME280;60835;50.974;10.322;2023-04-06T02:53:56;97731.25;;;-1.78;100.00
72721;BME280;60835;50.974;10.322;2023-04-06T02:56:23;97709.69;;;-1.78;100.00
72721;BME280;60835;50.974;10.322;2023-04-06T02:58:50;97693.78;;;-1.87;100.00
72721;BME280;60835;50.974;10.322;2023-04-06T03:01:16;97666.09;;;-1.86;100.00
72721;BME280;60835;50.974;10.322;2023-04-06T03:03:43;97661.28;;;-1.92;100.00
72721;BME280;60835;50.974;10.322;2023-04-06T03:06:10;97637.66;;;-1.88;100.00
72721;BME280;60835;50.974;10.322;2023-04-06T03:08:36;97628.63;;;-1.95;100.00
72721;BME280;60835;50.974;10.322;2023-04-06T03:11:03;97624.81;;;-1.89;100.00
72721;BME280;60835;50.974;10.322;2023-04-06T03:13:29;97602.88;;;-1.98;100.00
72721;BME280;60835;50.974;10.322;2023-04-06T03:15:56;97594.28;;;-1.98;100.00
72721;BME280;60835;50.974;10.322;2023-04-06T03:18:24;97586.81;;;-2.03;100.00
72721;BME280;60835;50.974;10.322;2023-04-06T03:20:51;97564.22;;;-2.01;100.00
72721;BME280;60835;50.974;10.322;2023-04-06T03:23:20;97539.50;;;-2.06;100.00
72721;BME280;60835;50.974;10.322;2023-04-06T03:25:47;97520.66;;;-2.08;100.00
72721;BME280;60835;50.974;10.322;2023-04-06T03:28:14;97510.41;;;-1.97;100.00
72721;BME280;60835;50.974;10.322;2023-04-06T03:30:41;97509.06;;;-2.03;100.00
72721;BME280;60835;50.974;10.322;2023-04-06T03:33:07;97506.97;;;-2.10;100.00
72721;BME280;60835;50.974;10.322;2023-04-06T03:35:34;97490.69;;;-2.12;100.00
72721;BME280;60835;50.974;10.322;2023-04-06T03:38:00;97473.09;;;-2.07;100.00
72721;BME280;60835;50.974;10.322;2023-04-06T03:40:27;97469.22;;;-2.14;100.00
72721;BME280;60835;50.974;10.322;2023-04-06T03:42:53;97459.78;;;-2.15;100.00
72721;BME280;60835;50.974;10.322;2023-04-06T03:45:20;97433.56;;;-2.11;100.00
72721;BME280;60835;50.974;10.322;2023-04-06T03:47:47;97428.50;;;-2.12;100.00
72721;BME280;60835;50.974;10.322;2023-04-06T03:50:13;97422.81;;;-2.17;100.00
72721;BME280;60835;50.974;10.322;2023-04-06T03:52:40;97390.56;;;-2.13;100.00
72721;BME280;60835;50.974;10.322;2023-04-06T03:55:07;97367.66;;;-2.19;100.00
72721;BME280;60835;50.974;10.322;2023-04-06T03:57:34;97350.34;;;-2.31;100.00
72721;BME280;60835;50.974;10.322;2023-04-06T04:00:01;97340.91;;;-2.32;100.00
72721;BME280;60835;50.974;10.322;2023-04-06T04:02:29;97329.09;;;-2.36;100.00
72721;BME280;60835;50.974;10.322;2023-04-06T04:04:56;97317.06;;;-2.37;100.00
72721;BME280;60835;50.974;10.322;2023-04-06T04:07:22;97301.72;;;-2.40;100.00
72721;BME280;60835;50.974;10.322;2023-04-06T04:09:49;97291.16;;;-2.37;100.00
72721;BME280;60835;50.974;10.322;2023-04-06T04:12:15;97291.56;;;-2.43;100.00
72721;BME280;60835;50.974;10.322;2023-04-06T04:14:43;97285.28;;;-2.39;100.00
72721;BME280;60835;50.974;10.322;2023-04-06T04:17:10;97287.47;;;-2.33;100.00
72721;BME280;60835;50.974;10.322;2023-04-06T04:19:37;97293.44;;;-2.46;100.00
72721;BME280;60835;50.974;10.322;2023-04-06T04:22:03;97287.41;;;-2.46;100.00
72721;BME280;60835;50.974;10.322;2023-04-06T04:24:31;97281.22;;;-2.43;100.00
72721;BME280;60835;50.974;10.322;2023-04-06T04:26:59;97291.56;;;-2.43;100.00
72721;BME280;60835;50.974;10.322;2023-04-06T04:29:27;97298.41;;;-2.42;100.00
72721;BME280;60835;50.974;10.322;2023-04-06T04:31:54;97294.06;;;-2.29;100.00
72721;BME280;60835;50.974;10.322;2023-04-06T04:34:21;97315.19;;;-2.35;100.00
72721;BME280;60835;50.974;10.322;2023-04-06T04:36:52;97330.72;;;-2.35;100.00
72721;BME280;60835;50.974;10.322;2023-04-06T04:39:18;97338.72;;;-2.38;100.00
72721;BME280;60835;50.974;10.322;2023-04-06T04:41:45;97339.47;;;-2.36;100.00
72721;BME280;60835;50.974;10.322;2023-04-06T04:44:12;97342.03;;;-2.36;100.00
72721;BME280;60835;50.974;10.322;2023-04-06T04:46:39;97332.84;;;-2.28;100.00
72721;BME280;60835;50.974;10.322;2023-04-06T04:49:07;97328.66;;;-2.43;100.00
72721;BME280;60835;50.974;10.322;2023-04-06T04:51:34;97305.28;;;-2.41;100.00
72721;BME280;60835;50.974;10.322;2023-04-06T04:54:02;97300.09;;;-2.41;100.00
72721;BME280;60835;50.974;10.322;2023-04-06T04:56:29;97293.63;;;-2.49;100.00
72721;BME280;60835;50.974;10.322;2023-04-06T04:58:56;97271.28;;;-2.50;100.00
72721;BME280;60835;50.974;10.322;2023-04-06T05:01:22;97259.06;;;-2.48;100.00
72721;BME280;60835;50.974;10.322;2023-04-06T05:03:49;97242.69;;;-2.48;100.00
72721;BME280;60835;50.974;10.322;2023-04-06T05:06:16;97212.22;;;-2.32;100.00
72721;BME280;60835;50.974;10.322;2023-04-06T05:08:45;97224.25;;;-2.43;100.00
72721;BME280;60835;50.974;10.322;2023-04-06T05:11:11;97220.84;;;-2.44;100.00
72721;BME280;60835;50.974;10.322;2023-04-06T05:13:38;97225.81;;;-2.41;100.00
72721;BME280;60835;50.974;10.322;2023-04-06T05:16:04;97225.38;;;-2.48;100.00
72721;BME280;60835;50.974;10.322;2023-04-06T05:18:35;97225.59;;;-2.51;100.00
72721;BME280;60835;50.974;10.322;2023-04-06T05:21:01;97217.63;;;-2.48;100.00
72721;BME280;60835;50.974;10.322;2023-04-06T05:23:28;97208.28;;;-2.37;100.00
72721;BME280;60835;50.974;10.322;2023-04-06T05:25:55;97225.06;;;-2.43;100.00
72721;BME280;60835;50.974;10.322;2023-04-06T05:28:22;97225.50;;;-2.36;100.00
72721;BME280;60835;50.974;10.322;2023-04-06T05:30:48;97228.16;;;-2.38;100.00
72721;BME280;60835;50.974;10.322;2023-04-06T05:33:15;97237.09;;;-2.29;100.00
72721;BME280;60835;50.974;10.322;2023-04-06T05:35:42;97230.25;;;-2.18;100.00
72721;BME280;60835;50.974;10.322;2023-04-06T05:38:09;97242.28;;;-2.29;100.00
72721;BME280;60835;50.974;10.322;2023-04-06T05:40:36;97276.69;;;-2.15;100.00
72721;BME280;60835;50.974;10.322;2023-04-06T05:43:04;97306.53;;;-2.09;100.00
72721;BME280;60835;50.974;10.322;2023-04-06T05:45:31;97304.97;;;-1.99;100.00
72721;BME280;60835;50.974;10.322;2023-04-06T05:47:58;97322.38;;;-1.89;100.00
72721;BME280;60835;50.974;10.322;2023-04-06T05:50:24;97357.91;;;-1.91;100.00
72721;BME280;60835;50.974;10.322;2023-04-06T05:52:51;97373.56;;;-1.92;100.00
72721;BME280;60835;50.974;10.322;2023-04-06T05:55:17;97375.25;;;-1.91;100.00
72721;BME280;60835;50.974;10.322;2023-04-06T05:57:44;97389.25;;;-1.81;100.00
72721;BME280;60835;50.974;10.322;2023-04-06T06:00:11;97401.25;;;-1.80;100.00
72721;BME280;60835;50.974;10.322;2023-04-06T06:02:38;97394.00;;;-1.50;100.00
72721;BME280;60835;50.974;10.322;2023-04-06T06:05:05;97435.69;;;-1.53;100.00
72721;BME280;60835;50.974;10.322;2023-04-06T06:07:32;97468.25;;;-1.24;100.00
72721;BME280;60835;50.974;10.322;2023-04-06T06:09:59;97514.25;;;-1.13;100.00
72721;BME280;60835;50.974;10.322;2023-04-06T06:12:26;97575.16;;;-1.18;100.00
72721;BME280;60835;50.974;10.322;2023-04-06T06:14:53;97606.31;;;-1.18;100.00
72721;BME280;60835;50.974;10.322;2023-04-06T06:17:20;97639.25;;;-1.06;100.00
72721;BME280;60835;50.974;10.322;2023-04-06T06:19:47;97680.72;;;-0.80;100.00
72721;BME280;60835;50.974;10.322;2023-04-06T06:22:13;97740.53;;;-0.69;100.00
72721;BME280;60835;50.974;10.322;2023-04-06T06:24:40;97793.81;;;-0.36;100.00
72721;BME280;60835;50.974;10.322;2023-04-06T06:27:07;97911.09;;;-0.16;100.00
72721;BME280;60835;50.974;10.322;2023-04-06T06:29:34;98038.63;;;-0.05;100.00
72721;BME280;60835;50.974;10.322;2023-04-06T06:32:01;98110.72;;;0.47;100.00
72721;BME280;60835;50.974;10.322;2023-04-06T06:34:27;98210.59;;;1.50;100.00
72721;BME280;60835;50.974;10.322;2023-04-06T06:36:54;98383.81;;;2.86;100.00
72721;BME280;60835;50.974;10.322;2023-04-06T06:39:23;98649.34;;;3.51;100.00
72721;BME280;60835;50.974;10.322;2023-04-06T06:41:50;98748.81;;;2.98;100.00
72721;BME280;60835;50.974;10.322;2023-04-06T06:44:16;98845.59;;;3.50;100.00
72721;BME280;60835;50.974;10.322;2023-04-06T06:46:43;98907.28;;;3.40;100.00
72721;BME280;60835;50.974;10.322;2023-04-06T06:49:09;98952.03;;;2.80;100.00
72721;BME280;60835;50.974;10.322;2023-04-06T06:51:39;98941.03;;;2.75;100.00
72721;BME280;60835;50.974;10.322;2023-04-06T06:54:05;98927.94;;;3.03;100.00
72721;BME280;60835;50.974;10.322;2023-04-06T06:56:33;98952.09;;;2.79;100.00
72721;BME280;60835;50.974;10.322;2023-04-06T06:59:02;98996.94;;;3.56;100.00
72721;BME280;60835;50.974;10.322;2023-04-06T07:01:29;99014.16;;;3.32;100.00
72721;BME280;60835;50.974;10.322;2023-04-06T07:03:55;98990.59;;;3.60;100.00
72721;BME280;60835;50.974;10.322;2023-04-06T07:06:22;99016.06;;;3.71;100.00
72721;BME280;60835;50.974;10.322;2023-04-06T07:08:48;99059.97;;;4.33;100.00
72721;BME280;60835;50.974;10.322;2023-04-06T07:11:15;99085.16;;;5.63;100.00
72721;BME280;60835;50.974;10.322;2023-04-06T07:13:42;99149.75;;;6.74;100.00
72721;BME280;60835;50.974;10.322;2023-04-06T07:16:08;99117.41;;;5.40;100.00
72721;BME280;60835;50.974;10.322;2023-04-06T07:18:36;99168.28;;;5.25;100.00
72721;BME280;60835;50.974;10.322;2023-04-06T07:21:02;99162.22;;;6.60;100.00
72721;BME280;60835;50.974;10.322;2023-04-06T07:23:29;99215.22;;;6.66;100.00
72721;BME280;60835;50.974;10.322;2023-04-06T07:25:55;99244.22;;;7.82;100.00
72721;BME280;60835;50.974;10.322;2023-04-06T07:28:22;99179.34;;;6.89;100.00
72721;BME280;60835;50.974;10.322;2023-04-06T07:30:49;99268.56;;;7.96;100.00
72721;BME280;60835;50.974;10.322;2023-04-06T07:33:15;99307.47;;;9.15;100.00
72721;BME280;60835;50.974;10.322;2023-04-06T07:35:42;99313.41;;;8.96;100.00
72721;BME280;60835;50.974;10.322;2023-04-06T07:38:09;99329.78;;;9.22;100.00
72721;BME280;60835;50.974;10.322;2023-04-06T07:40:35;99325.47;;;9.85;100.00
72721;BME280;60835;50.974;10.322;2023-04-06T07:43:02;99325.81;;;8.63;100.00
72721;BME280;60835;50.974;10.322;2023-04-06T07:45:29;99316.72;;;9.21;100.00
72721;BME280;60835;50.974;10.322;2023-04-06T07:47:55;99317.28;;;10.29;100.00
72721;BME280;60835;50.974;10.322;2023-04-06T07:50:22;99335.41;;;9.92;100.00
72721;BME280;60835;50.974;10.322;2023-04-06T07:52:49;99333.81;;;9.69;100.00
72721;BME280;60835;50.974;10.322;2023-04-06T07:55:16;99329.53;;;9.89;100.00
72721;BME280;60835;50.974;10.322;2023-04-06T07:57:42;99330.38;;;11.79;100.00
72721;BME280;60835;50.974;10.322;2023-04-06T08:00:09;99338.38;;;10.40;100.00
72721;BME280;60835;50.974;10.322;2023-04-06T08:02:36;99339.84;;;9.28;100.00
72721;BME280;60835;50.974;10.322;2023-04-06T08:05:03;99334.22;;;9.53;100.00
72721;BME280;60835;50.974;10.322;2023-04-06T08:07:29;99322.66;;;11.37;100.00
72721;BME280;60835;50.974;10.322;2023-04-06T08:09:56;99330.47;;;11.20;100.00
72721;BME280;60835;50.974;10.322;2023-04-06T08:12:23;99325.59;;;11.34;100.00
72721;BME280;60835;50.974;10.322;2023-04-06T08:14:49;99324.94;;;11.80;100.00
72721;BME280;60835;50.974;10.322;2023-04-06T08:17:16;99241.72;;;10.06;100.00
72721;BME280;60835;50.974;10.322;2023-04-06T08:19:43;99322.31;;;11.02;100.00
72721;BME280;60835;50.974;10.322;2023-04-06T08:22:11;99337.63;;;10.59;100.00
72721;BME280;60835;50.974;10.322;2023-04-06T08:24:37;99322.59;;;12.43;100.00
72721;BME280;60835;50.974;10.322;2023-04-06T08:27:03;99320.88;;;13.78;100.00
72721;BME280;60835;50.974;10.322;2023-04-06T08:29:30;99323.00;;;12.48;100.00
72721;BME280;60835;50.974;10.322;2023-04-06T08:31:57;99309.94;;;14.24;100.00
72721;BME280;60835;50.974;10.322;2023-04-06T08:34:23;99313.41;;;14.42;100.00
72721;BME280;60835;50.974;10.322;2023-04-06T08:36:50;99308.84;;;14.94;100.00
72721;BME280;60835;50.974;10.322;2023-04-06T08:39:17;99306.13;;;15.36;100.00
72721;BME280;60835;50.974;10.322;2023-04-06T08:41:50;99312.25;;;14.79;100.00
72721;BME280;60835;50.974;10.322;2023-04-06T08:44:18;99308.84;;;14.94;100.00
72721;BME280;60835;50.974;10.322;2023-04-06T08:46:45;99315.25;;;14.24;100.00
72721;BME280;60835;50.974;10.322;2023-04-06T08:49:12;99319.94;;;14.04;100.00
72721;BME280;60835;50.974;10.322;2023-04-06T08:51:40;99318.31;;;12.69;95.74
72721;BME280;60835;50.974;10.322;2023-04-06T08:54:08;99318.97;;;12.44;93.79
72721;BME280;60835;50.974;10.322;2023-04-06T08:56:37;99315.53;;;12.70;92.78
72721;BME280;60835;50.974;10.322;2023-04-06T08:59:03;99306.19;;;12.94;92.59
72721;BME280;60835;50.974;10.322;2023-04-06T09:01:31;99311.75;;;12.27;91.00
72721;BME280;60835;50.974;10.322;2023-04-06T09:04:00;99308.47;;;13.06;95.07
72721;BME280;60835;50.974;10.322;2023-04-06T09:06:27;99313.19;;;13.75;90.55
72721;BME280;60835;50.974;10.322;2023-04-06T09:08:53;99313.34;;;13.56;90.47
72721;BME280;60835;50.974;10.322;2023-04-06T09:11:21;99319.50;;;11.91;91.21
72721;BME280;60835;50.974;10.322;2023-04-06T09:13:49;99321.03;;;12.87;90.95
72721;BME280;60835;50.974;10.322;2023-04-06T09:16:19;99328.88;;;11.08;90.31
72721;BME280;60835;50.974;10.322;2023-04-06T09:18:46;99300.09;;;12.83;90.97
72721;BME280;60835;50.974;10.322;2023-04-06T09:21:13;99316.19;;;12.36;89.20
72721;BME280;60835;50.974;10.322;2023-04-06T09:23:42;99310.78;;;12.64;89.14
72721;BME280;60835;50.974;10.322;2023-04-06T09:26:10;99315.22;;;13.28;88.12
72721;BME280;60835;50.974;10.322;2023-04-06T09:28:57;99303.13;;;13.16;86.24
72721;BME280;60835;50.974;10.322;2023-04-06T09:31:24;99312.88;;;12.34;86.23
72721;BME280;60835;50.974;10.322;2023-04-06T09:33:51;99303.94;;;12.25;88.82
72721;BME280;60835;50.974;10.322;2023-04-06T09:36:19;99295.28;;;13.59;90.18
72721;BME280;60835;50.974;10.322;2023-04-06T09:41:25;99298.31;;;13.02;86.56
72721;BME280;60835;50.974;10.322;2023-04-06T09:43:52;99299.47;;;14.05;86.50
72721;BME280;60835;50.974;10.322;2023-04-06T09:46:27;99296.97;;;14.03;86.35
72721;BME280;60835;50.974;10.322;2023-04-06T09:48:55;99296.19;;;13.68;83.12
72721;BME280;60835;50.974;10.322;2023-04-06T09:51:21;99296.47;;;13.29;85.77
72721;BME280;60835;50.974;10.322;2023-04-06T09:53:50;99294.97;;;13.45;84.61
72721;BME280;60835;50.974;10.322;2023-04-06T09:56:19;99288.53;;;14.08;84.53
72721;BME280;60835;50.974;10.322;2023-04-06T09:58:47;99294.34;;;13.15;83.94
72721;BME280;60835;50.974;10.322;2023-04-06T10:01:16;99292.91;;;13.38;83.74
72721;BME280;60835;50.974;10.322;2023-04-06T10:04:09;99288.34;;;12.86;83.70
72721;BME280;60835;50.974;10.322;2023-04-06T10:06:32;99283.09;;;12.67;83.39
72721;BME280;60835;50.974;10.322;2023-04-06T10:09:02;99287.56;;;12.76;85.20
72721;BME280;60835;50.974;10.322;2023-04-06T10:11:30;99278.16;;;13.09;85.23
72721;BME280;60835;50.974;10.322;2023-04-06T10:13:57;99282.78;;;13.95;83.82
72721;BME280;60835;50.974;10.322;2023-04-06T10:16:24;99279.63;;;13.38;84.81
72721;BME280;60835;50.974;10.322;2023-04-06T10:18:54;99266.41;;;13.82;83.82
72721;BME280;60835;50.974;10.322;2023-04-06T10:21:24;99250.50;;;15.65;82.05
72721;BME280;60835;50.974;10.322;2023-04-06T10:23:52;99256.78;;;13.63;84.03
72721;BME280;60835;50.974;10.322;2023-04-06T10:26:20;99268.16;;;12.93;85.52
72721;BME280;60835;50.974;10.322;2023-04-06T10:28:50;99274.63;;;13.35;84.00
72721;BME280;60835;50.974;10.322;2023-04-06T10:31:27;99261.84;;;13.57;87.37
72721;BME280;60835;50.974;10.322;2023-04-06T10:33:55;99252.84;;;14.86;83.29
72721;BME280;60835;50.974;10.322;2023-04-06T10:36:32;99172.09;;;12.53;84.05
72721;BME280;60835;50.974;10.322;2023-04-06T10:39:00;99248.88;;;14.23;82.96
72721;BME280;60835;50.974;10.322;2023-04-06T10:42:05;99260.09;;;13.65;82.78
72721;BME280;60835;50.974;10.322;2023-04-06T10:44:22;99258.34;;;12.76;86.38
72721;BME280;60835;50.974;10.322;2023-04-06T10:46:53;99263.03;;;13.80;84.29
72721;BME280;60835;50.974;10.322;2023-04-06T10:49:21;99255.38;;;14.28;84.86
72721;BME280;60835;50.974;10.322;2023-04-06T10:51:53;99238.97;;;16.05;84.09
72721;BME280;60835;50.974;10.322;2023-04-06T10:54:24;99239.56;;;16.39;85.71
72721;BME280;60835;50.974;10.322;2023-04-06T10:56:50;99233.53;;;14.84;82.63
72721;BME280;60835;50.974;10.322;2023-04-06T10:59:20;99231.69;;;15.83;83.78
72721;BME280;60835;50.974;10.322;2023-04-06T11:01:53;99230.31;;;17.28;83.64
72721;BME280;60835;50.974;10.322;2023-04-06T11:04:22;99222.38;;;17.65;83.66
72721;BME280;60835;50.974;10.322;2023-04-06T11:06:50;99227.00;;;15.77;81.17
72721;BME280;60835;50.974;10.322;2023-04-06T11:09:23;99228.34;;;16.52;80.48
72721;BME280;60835;50.974;10.322;2023-04-06T11:11:50;99241.09;;;15.05;81.32
72721;BME280;60835;50.974;10.322;2023-04-06T11:14:16;99223.50;;;15.68;82.02
72721;BME280;60835;50.974;10.322;2023-04-06T11:16:46;99222.94;;;16.21;79.61
72721;BME280;60835;50.974;10.322;2023-04-06T11:19:13;99219.66;;;15.79;79.60
72721;BME280;60835;50.974;10.322;2023-04-06T11:24:11;99217.97;;;15.38;80.80
72721;BME280;60835;50.974;10.322;2023-04-06T11:26:48;99201.50;;;18.42;80.65
72721;BME280;60835;50.974;10.322;2023-04-06T11:29:15;99219.22;;;16.85;77.82
72721;BME280;60835;50.974;10.322;2023-04-06T11:31:46;99209.50;;;15.66;79.96
72721;BME280;60835;50.974;10.322;2023-04-06T11:34:17;99208.50;;;15.75;78.67
72721;BME280;60835;50.974;10.322;2023-04-06T11:36:44;99200.78;;;16.68;78.92
72721;BME280;60835;50.974;10.322;2023-04-06T11:39:12;99189.97;;;16.53;84.15
72721;BME280;60835;50.974;10.322;2023-04-06T11:41:39;99190.47;;;15.94;79.77
72721;BME280;60835;50.974;10.322;2023-04-06T11:44:06;99205.44;;;14.98;78.87
72721;BME280;60835;50.974;10.322;2023-04-06T11:46:32;99196.34;;;15.49;81.50
72721;BME280;60835;50.974;10.322;2023-04-06T11:48:59;99166.22;;;19.24;80.00
72721;BME280;60835;50.974;10.322;2023-04-06T11:51:27;99186.81;;;15.62;77.21
72721;BME280;60835;50.974;10.322;2023-04-06T11:53:54;99183.56;;;16.70;77.49
72721;BME280;60835;50.974;10.322;2023-04-06T11:56:28;99159.72;;;19.55;76.17
72721;BME280;60835;50.974;10.322;2023-04-06T11:58:56;99170.22;;;17.61;72.98
72721;BME280;60835;50.974;10.322;2023-04-06T12:01:23;99168.44;;;17.91;74.17
72721;BME280;60835;50.974;10.322;2023-04-06T12:03:50;99163.94;;;18.50;74.46
72721;BME280;60835;50.974;10.322;2023-04-06T12:06:17;99149.34;;;19.52;75.15
72721;BME280;60835;50.974;10.322;2023-04-06T12:08:44;99165.22;;;18.24;72.16
72721;BME280;60835;50.974;10.322;2023-04-06T12:11:13;99077.97;;;17.57;74.36
72721;BME280;60835;50.974;10.322;2023-04-06T12:13:40;99155.22;;;17.75;76.43
72721;BME280;60835;50.974;10.322;2023-04-06T12:16:07;99138.84;;;18.72;76.55
72721;BME280;60835;50.974;10.322;2023-04-06T12:18:33;99140.19;;;19.67;72.88
72721;BME280;60835;50.974;10.322;2023-04-06T12:21:00;99139.09;;;21.25;71.20
72721;BME280;60835;50.974;10.322;2023-04-06T12:23:26;99143.97;;;18.88;71.25
72721;BME280;60835;50.974;10.322;2023-04-06T12:25:55;99147.03;;;18.05;70.17
72721;BME280;60835;50.974;10.322;2023-04-06T12:28:22;99138.44;;;20.15;69.56
72721;BME280;60835;50.974;10.322;2023-04-06T12:30:53;99142.75;;;18.40;69.91
72721;BME280;60835;50.974;10.322;2023-04-06T12:33:20;99141.19;;;18.60;70.15
72721;BME280;60835;50.974;10.322;2023-04-06T12:35:47;99132.47;;;19.58;66.76
72721;BME280;60835;50.974;10.322;2023-04-06T12:38:15;99130.00;;;20.18;69.05
72721;BME280;60835;50.974;10.322;2023-04-06T12:40:42;99157.50;;;17.63;68.92
72721;BME280;60835;50.974;10.322;2023-04-06T12:43:09;99082.97;;;16.55;69.45
72721;BME280;60835;50.974;10.322;2023-04-06T12:45:36;99139.50;;;20.14;70.20
72721;BME280;60835;50.974;10.322;2023-04-06T12:48:02;99144.63;;;17.96;66.32
72721;BME280;60835;50.974;10.322;2023-04-06T12:50:29;99139.81;;;17.91;69.48